Whitefish Bay — CFN6287 — position and weather

sailwx.info

Track history (hours):
 
Tides and Currents Weather Stations Pressure Air Temp Water Temp Dewpoint Dewpoint Depression Visibility Wind Speed Wind Dir Waves Ship Positions

Whitefish Bay

Last reported at 2018-Jul-20 22:54 UTC. Time now 2018-Jul-22 04:35 UTC.
Position N 46°15' W 084°06'.

Length 225 m; draft 7.1 m.

Type: Cargo ship. MMSI: 316023341.

Date/timePositionNaut miles runAvg speedWind from/ knotsBaromVisibWave heightAir tempDewpointWater temp
2018-Jul-20 22:54N 46°15' W 084°06'9 9.0
2018-Jul-20 21:57N 46°07' W 084°01'510.1
2018-Jul-20 21:30N 46°03' W 083°58'610.5
2018-Jul-20 20:57N 45°59' W 083°53'612.6
2018-Jul-20 20:29N 45°53' W 083°50'713.0
2018-Jul-20 19:58N 45°47' W 083°45'613.0
2018-Jul-20 19:28N 45°42' W 083°40'613.2
2018-Jul-20 19:00N 45°37' W 083°34'613.2
2018-Jul-20 18:30N 45°32' W 083°29'713.1
2018-Jul-20 17:59N 45°26' W 083°24'  
2018-Jul-17 19:24N 45°14' W 074°15'410.3
2018-Jul-17 19:00N 45°14' W 074°09'5 8.3
2018-Jul-17 18:23N 45°13' W 074°02'3 8.6
2018-Jul-17 18:00N 45°15' W 073°58'3 6.6
2018-Jul-17 17:31N 45°18' W 073°56'0 0.8
2018-Jul-17 17:00N 45°18' W 073°55'1 1.2
2018-Jul-17 16:30N 45°19' W 073°55'0 0.6
2018-Jul-17 16:00N 45°19' W 073°55'0 0.6
2018-Jul-17 15:30N 45°20' W 073°55'3 5.9
2018-Jul-17 15:00N 45°21' W 073°51'510.2
2018-Jul-17 14:30N 45°24' W 073°46'4 7.2
2018-Jul-17 14:00N 45°25' W 073°41'3 6.0
2018-Jul-17 13:30N 45°24' W 073°36'2 3.6
2018-Jul-17 13:01N 45°24' W 073°34'1 1.6
2018-Jul-17 12:30N 45°24' W 073°33'3 5.3
2018-Jul-17 12:01N 45°26' W 073°30'3 6.5
2018-Jul-17 11:31N 45°30' W 073°31'0 0.4
2018-Jul-17 11:01N 45°30' W 073°31'1 1.7
2018-Jul-17 10:28N 45°31' W 073°31'6 0.1
2018-Jul-15 13:38N 45°25' W 073°32'1 2.4
2018-Jul-15 13:02N 45°24' W 073°34'0 0.2
2018-Jul-15 13:01N 45°24' W 073°34'1 1.1
2018-Jul-15 12:30N 45°24' W 073°35'1 2.8
2018-Jul-15 11:59N 45°24' W 073°37'3 5.5
2018-Jul-15 11:31N 45°25' W 073°40'3 6.9
2018-Jul-15 11:01N 45°24' W 073°45'611.3
2018-Jul-15 10:29N 45°21' W 073°52'3 5.9
2018-Jul-15 10:00N 45°19' W 073°55'0 0.5
2018-Jul-15 09:30N 45°19' W 073°55'1 1.2
2018-Jul-15 09:00N 45°18' W 073°56'0 0.8
2018-Jul-15 08:26N 45°18' W 073°56'  
2018-Jul-12 02:40N 45°27' W 083°14'212.5
2018-Jul-12 02:29N 45°28' W 083°16'612.5
2018-Jul-12 01:58N 45°33' W 083°22'  
Track history (hours):
 
Tides and Currents Weather Stations Pressure Air Temp Water Temp Dewpoint Dewpoint Depression Visibility Wind Speed Wind Dir Waves Ship Positions

Whitefish Bay

Last reported at 2018-Jul-20 22:54 UTC. Time now 2018-Jul-22 04:35 UTC.
Position N 46°15' W 084°06'.

Length 225 m; draft 7.1 m.

Type: Cargo ship. MMSI: 316023341.

Date/timePositionNaut miles runAvg speedWind from/ knotsBaromVisibWave heightAir tempDewpointWater temp
2018-Jul-20 22:54N 46°15' W 084°06'9 9.0
2018-Jul-20 21:57N 46°07' W 084°01'510.1
2018-Jul-20 21:30N 46°03' W 083°58'610.5
2018-Jul-20 20:57N 45°59' W 083°53'612.6
2018-Jul-20 20:29N 45°53' W 083°50'713.0
2018-Jul-20 19:58N 45°47' W 083°45'613.0
2018-Jul-20 19:28N 45°42' W 083°40'613.2
2018-Jul-20 19:00N 45°37' W 083°34'613.2
2018-Jul-20 18:30N 45°32' W 083°29'713.1
2018-Jul-20 17:59N 45°26' W 083°24'  
2018-Jul-17 19:24N 45°14' W 074°15'410.3
2018-Jul-17 19:00N 45°14' W 074°09'5 8.3
2018-Jul-17 18:23N 45°13' W 074°02'3 8.6
2018-Jul-17 18:00N 45°15' W 073°58'3 6.6
2018-Jul-17 17:31N 45°18' W 073°56'0 0.8
2018-Jul-17 17:00N 45°18' W 073°55'1 1.2
2018-Jul-17 16:30N 45°19' W 073°55'0 0.6
2018-Jul-17 16:00N 45°19' W 073°55'0 0.6
2018-Jul-17 15:30N 45°20' W 073°55'3 5.9
2018-Jul-17 15:00N 45°21' W 073°51'510.2
2018-Jul-17 14:30N 45°24' W 073°46'4 7.2
2018-Jul-17 14:00N 45°25' W 073°41'3 6.0
2018-Jul-17 13:30N 45°24' W 073°36'2 3.6
2018-Jul-17 13:01N 45°24' W 073°34'1 1.6
2018-Jul-17 12:30N 45°24' W 073°33'3 5.3
2018-Jul-17 12:01N 45°26' W 073°30'3 6.5
2018-Jul-17 11:31N 45°30' W 073°31'0 0.4
2018-Jul-17 11:01N 45°30' W 073°31'1 1.7
2018-Jul-17 10:28N 45°31' W 073°31'6 0.1
2018-Jul-15 13:38N 45°25' W 073°32'1 2.4
2018-Jul-15 13:02N 45°24' W 073°34'0 0.2
2018-Jul-15 13:01N 45°24' W 073°34'1 1.1
2018-Jul-15 12:30N 45°24' W 073°35'1 2.8
2018-Jul-15 11:59N 45°24' W 073°37'3 5.5
2018-Jul-15 11:31N 45°25' W 073°40'3 6.9
2018-Jul-15 11:01N 45°24' W 073°45'611.3
2018-Jul-15 10:29N 45°21' W 073°52'3 5.9
2018-Jul-15 10:00N 45°19' W 073°55'0 0.5
2018-Jul-15 09:30N 45°19' W 073°55'1 1.2
2018-Jul-15 09:00N 45°18' W 073°56'0 0.8
2018-Jul-15 08:26N 45°18' W 073°56'  
2018-Jul-12 02:40N 45°27' W 083°14'212.5
2018-Jul-12 02:29N 45°28' W 083°16'612.5
2018-Jul-12 01:58N 45°33' W 083°22'  

Dump ship's entire track history